Time;durP1;ratioP1;P1;durP2;ratioP2;P2;SDS_P1;SDS_P2;PMS_P1;PMS_P2;Temp;Humidity;BMP_temperature;BMP_pressure;BME280_temperature;BME280_humidity;BME280_pressure;Samples;Min_cycle;Max_cycle;Signal;HPM_P1;HPM_P2
2022/11/29 00:00:41;;;;;;;9.50;7.63;;;;;;;;;;5068922;28;20057;-56
2022/11/29 00:06:23;;;;;;;9.98;8.75;;;;;;;;;;5049972;28;20089;-53
2022/11/29 00:09:07;;;;;;;13.38;9.38;;;;;;;;;;5065764;28;20056;-53
2022/11/29 00:15:21;;;;;;;12.65;8.05;;;;;;;;;;5066194;28;20043;-56
2022/11/29 00:17:56;;;;;;;8.48;7.35;;;;;;;;;;5063197;28;20044;-56
2022/11/29 00:20:38;;;;;;;9.15;8.23;;;;;;;;;;5065377;28;20039;-57
2022/11/29 00:23:32;;;;;;;11.23;8.75;;;;;;;;;;5065350;28;20040;-54
2022/11/29 00:26:20;;;;;;;11.70;9.50;;;;;;;;;;5049152;28;20037;-51
2022/11/29 00:29:15;;;;;;;8.38;7.20;;;;;;;;;;5049144;28;20136;-55
2022/11/29 00:32:00;;;;;;;9.82;7.85;;;;;;;;;;5059013;28;20045;-54
2022/11/29 00:35:07;;;;;;;10.27;9.15;;;;;;;;;;5065575;28;20045;-54
2022/11/29 00:40:43;;;;;;;10.40;8.13;;;;;;;;;;5066813;28;20051;-57
2022/11/29 00:46:28;;;;;;;;;;;;;;;;;;;;;
2022/11/29 00:49:01;;;;;;;11.25;9.50;;;;;;;;;;5068134;28;20171;-55
2022/11/29 00:51:52;;;;;;;13.68;8.85;;;;;;;;;;5084909;28;20045;-57
2022/11/29 00:54:37;;;;;;;10.48;8.55;;;;;;;;;;5076120;28;20063;-53
2022/11/29 00:57:26;;;;;;;11.05;9.63;;;;;;;;;;5087391;28;20021;-55
2022/11/29 01:00:04;;;;;;;8.52;7.57;;;;;;;;;;5087112;28;20032;-51
2022/11/29 01:03:15;;;;;;;9.95;8.43;;;;;;;;;;5087117;28;20048;-55
2022/11/29 01:05:48;;;;;;;8.98;7.93;;;;;;;;;;5087710;28;20024;-54
2022/11/29 01:08:46;;;;;;;;;;;;;;;;;;;;;
2022/11/29 01:11:58;;;;;;;;;;;;;;;;;;;;;
2022/11/29 01:14:51;;;;;;;11.45;7.53;;;;;;;;;;5041537;28;20063;-53
2022/11/29 01:17:26;;;;;;;11.68;9.48;;;;;;;;;;5087921;28;20023;-57
2022/11/29 01:20:11;;;;;;;9.98;8.52;;;;;;;;;;5087325;28;20020;-54
2022/11/29 01:25:37;;;;;;;10.30;9.20;;;;;;;;;;5045522;28;20037;-55
2022/11/29 01:30:57;;;;;;;12.73;8.65;;;;;;;;;;5085756;28;20031;-56
2022/11/29 01:33:28;;;;;;;10.00;8.48;;;;;;;;;;5081268;28;20041;-57
2022/11/29 01:36:17;;;;;;;10.63;8.70;;;;;;;;;;5090760;28;20028;-54
2022/11/29 01:42:05;;;;;;;12.02;9.93;;;;;;;;;;5083404;28;20041;-57
2022/11/29 01:48:05;;;;;;;11.27;8.77;;;;;;;;;;5090889;28;20494;-55
2022/11/29 01:54:00;;;;;;;7.40;6.60;;;;;;;;;;5090285;28;20040;-54
2022/11/29 01:56:32;;;;;;;8.63;7.10;;;;;;;;;;5090441;28;20122;-55
2022/11/29 01:59:10;;;;;;;11.10;8.50;;;;;;;;;;5090649;28;20048;-55
2022/11/29 02:01:52;;;;;;;10.85;7.93;;;;;;;;;;5090193;28;20036;-54
2022/11/29 02:04:56;;;;;;;9.40;7.25;;;;;;;;;;5071994;28;20071;-51
2022/11/29 02:07:45;;;;;;;11.32;8.52;;;;;;;;;;5072231;28;20024;-56
2022/11/29 02:13:23;;;;;;;8.95;7.78;;;;;;;;;;5074590;28;20033;-52
2022/11/29 02:18:53;;;;;;;9.20;6.63;;;;;;;;;;5089889;28;20036;-54
2022/11/29 02:21:51;;;;;;;;;;;;;;;;;;;;;
2022/11/29 02:27:41;;;;;;;8.05;7.03;;;;;;;;;;5068046;28;20078;-56
2022/11/29 02:30:41;;;;;;;7.82;6.82;;;;;;;;;;5072183;28;20044;-53
2022/11/29 02:33:33;;;;;;;9.45;7.10;;;;;;;;;;5090627;28;20033;-53
2022/11/29 02:36:21;;;;;;;7.45;6.63;;;;;;;;;;5071718;28;20049;-56
2022/11/29 02:42:10;;;;;;;8.68;7.78;;;;;;;;;;5084299;28;20339;-55
2022/11/29 02:45:03;;;;;;;7.30;6.57;;;;;;;;;;5089857;28;20092;-55
2022/11/29 02:47:57;;;;;;;10.23;7.45;;;;;;;;;;5084388;28;20039;-55
2022/11/29 02:50:55;;;;;;;9.20;7.32;;;;;;;;;;5085416;28;20052;-53
2022/11/29 02:53:50;;;;;;;9.45;7.65;;;;;;;;;;5069755;28;20063;-55
2022/11/29 02:56:44;;;;;;;7.13;6.43;;;;;;;;;;5049935;28;20073;-56
2022/11/29 02:59:29;;;;;;;8.43;6.53;;;;;;;;;;5069814;28;20024;-55
2022/11/29 03:02:17;;;;;;;9.55;6.70;;;;;;;;;;5069385;28;20028;-53
2022/11/29 03:05:02;;;;;;;10.90;6.13;;;;;;;;;;5069630;28;20494;-56
2022/11/29 03:07:47;;;;;;;7.05;6.22;;;;;;;;;;5069489;28;20127;-56
2022/11/29 03:10:38;;;;;;;8.07;6.72;;;;;;;;;;5007908;28;20058;-56
2022/11/29 03:13:42;;;;;;;;;;;;;;;;;;;;;
2022/11/29 03:16:25;;;;;;;6.93;6.20;;;;;;;;;;5007866;28;20061;-55
2022/11/29 03:19:01;;;;;;;6.32;5.30;;;;;;;;;;5008404;28;20034;-55
2022/11/29 03:25:01;;;;;;;5.55;4.85;;;;;;;;;;5008160;28;20134;-52
2022/11/29 03:28:05;;;;;;;6.80;4.85;;;;;;;;;;4988333;28;20034;-57
2022/11/29 03:30:45;;;;;;;5.95;4.90;;;;;;;;;;5007748;28;20042;-52
2022/11/29 03:36:53;;;;;;;8.25;4.43;;;;;;;;;;5007386;28;20714;-55
2022/11/29 03:49:29;;;;;;;6.63;5.43;;;;;;;;;;4987562;28;20042;-56
2022/11/29 03:52:04;;;;;;;9.05;5.32;;;;;;;;;;5003867;28;20099;-55
2022/11/29 03:55:07;;;;;;;8.52;5.43;;;;;;;;;;4991161;28;20058;-57
2022/11/29 03:57:55;;;;;;;8.18;5.70;;;;;;;;;;5007602;28;20026;-55
2022/11/29 04:00:42;;;;;;;5.78;5.18;;;;;;;;;;5041798;28;20039;-55
2022/11/29 04:03:36;;;;;;;6.75;4.93;;;;;;;;;;5088427;28;20398;-55
2022/11/29 04:06:28;;;;;;;8.40;5.68;;;;;;;;;;5088992;28;20454;-54
2022/11/29 04:09:02;;;;;;;;;;;;;;;;;;5066425;28;20044;-56
2022/11/29 04:12:10;;;;;;;7.85;5.75;;;;;;;;;;5066334;28;19911;-56
2022/11/29 04:15:15;;;;;;;6.55;4.30;;;;;;;;;;5066495;28;20056;-56
2022/11/29 04:18:20;;;;;;;7.72;6.20;;;;;;;;;;5066471;28;20029;-54
2022/11/29 04:21:02;;;;;;;8.48;6.88;;;;;;;;;;5066465;28;20534;-56
2022/11/29 04:26:55;;;;;;;6.53;5.93;;;;;;;;;;5046585;28;20041;-57
2022/11/29 04:29:30;;;;;;;7.15;5.55;;;;;;;;;;5025685;28;20065;-56
2022/11/29 04:32:25;;;;;;;5.93;4.97;;;;;;;;;;5000191;28;20049;-54
2022/11/29 04:35:15;;;;;;;;;;;;;;;;;;;;;
2022/11/29 04:38:22;;;;;;;7.03;4.53;;;;;;;;;;5012620;28;20431;-55
2022/11/29 04:41:02;;;;;;;5.70;4.80;;;;;;;;;;5012450;28;20034;-56
2022/11/29 04:43:54;;;;;;;7.68;5.47;;;;;;;;;;5032136;28;20048;-57
2022/11/29 04:46:54;;;;;;;6.80;4.95;;;;;;;;;;5015483;28;20411;-53
2022/11/29 04:52:43;;;;;;;6.32;4.57;;;;;;;;;;4986067;28;20042;-56
2022/11/29 04:55:28;;;;;;;;;;;;;;;;;;;;;
2022/11/29 05:07:27;;;;;;;5.70;4.82;;;;;;;;;;5074019;28;20055;-55
2022/11/29 05:16:39;;;;;;;4.50;3.83;;;;;;;;;;4996195;28;20070;-57
2022/11/29 05:19:24;;;;;;;6.97;4.10;;;;;;;;;;4996289;28;20496;-55
2022/11/29 05:22:19;;;;;;;6.45;4.03;;;;;;;;;;5054671;28;20024;-57
2022/11/29 05:25:22;;;;;;;4.75;3.85;;;;;;;;;;5078284;28;20027;-57
2022/11/29 05:28:22;;;;;;;5.82;4.20;;;;;;;;;;5058873;28;20033;-53
2022/11/29 05:34:28;;;;;;;4.93;3.75;;;;;;;;;;5072113;28;20357;-56
2022/11/29 05:50:14;;;;;;;3.75;2.40;;;;;;;;;;5072196;28;20094;-57
2022/11/29 05:53:05;;;;;;;3.75;2.72;;;;;;;;;;5017456;28;20049;-57
2022/11/29 05:55:53;;;;;;;3.70;2.92;;;;;;;;;;5043018;28;20044;-56
2022/11/29 06:05:23;;;;;;;6.37;2.67;;;;;;;;;;5054266;28;20564;-56
2022/11/29 06:08:26;;;;;;;3.83;2.50;;;;;;;;;;5028206;28;20346;-55
2022/11/29 06:11:24;;;;;;;4.07;2.92;;;;;;;;;;5055711;28;20029;-56
2022/11/29 06:13:56;;;;;;;2.97;2.28;;;;;;;;;;5032024;28;20033;-54
2022/11/29 06:16:55;;;;;;;2.92;1.95;;;;;;;;;;5056260;28;20387;-56
2022/11/29 06:19:55;;;;;;;3.05;2.10;;;;;;;;;;5056884;28;20091;-55
2022/11/29 06:25:56;;;;;;;4.25;3.30;;;;;;;;;;5042659;28;20036;-55
2022/11/29 06:28:50;;;;;;;3.75;2.35;;;;;;;;;;5056456;28;20455;-57
2022/11/29 06:31:38;;;;;;;5.35;2.88;;;;;;;;;;5037961;28;20080;-56
2022/11/29 06:34:39;;;;;;;;;;;;;;;;;;;;;
2022/11/29 06:37:30;;;;;;;4.90;2.80;;;;;;;;;;5056203;28;20035;-56
2022/11/29 06:40:19;;;;;;;4.32;3.33;;;;;;;;;;5038992;28;20036;-56
2022/11/29 06:43:18;;;;;;;5.55;3.65;;;;;;;;;;5056756;28;20055;-56
2022/11/29 06:46:01;;;;;;;5.85;3.90;;;;;;;;;;5037299;28;20055;-53
2022/11/29 06:48:37;;;;;;;6.43;4.68;;;;;;;;;;5055574;28;20048;-55
2022/11/29 06:51:44;;;;;;;3.95;3.35;;;;;;;;;;5055575;28;20142;-58
2022/11/29 06:57:39;;;;;;;6.72;3.92;;;;;;;;;;4974688;28;20027;-55
2022/11/29 07:00:30;;;;;;;6.38;5.13;;;;;;;;;;5037465;28;20445;-57
2022/11/29 07:03:21;;;;;;;5.32;4.43;;;;;;;;;;5037311;28;20479;-56
2022/11/29 07:06:26;;;;;;;7.10;5.25;;;;;;;;;;5026771;28;20029;-57
2022/11/29 07:09:16;;;;;;;7.30;4.20;;;;;;;;;;4954435;28;20067;-57
2022/11/29 07:12:10;;;;;;;8.48;5.25;;;;;;;;;;5034415;28;20056;-57
2022/11/29 07:18:15;;;;;;;;;;;;;;;;;;;;;
2022/11/29 07:21:06;;;;;;;8.88;5.68;;;;;;;;;;4987759;28;20032;-57
2022/11/29 07:23:41;;;;;;;8.10;5.57;;;;;;;;;;5056053;28;20028;-56
2022/11/29 07:29:39;;;;;;;9.75;6.07;;;;;;;;;;5054903;28;20070;-58
2022/11/29 07:32:26;;;;;;;5.00;4.38;;;;;;;;;;5034144;28;20506;-56
2022/11/29 07:38:21;;;;;;;7.63;5.57;;;;;;;;;;5054970;28;20086;-56
2022/11/29 07:44:09;;;;;;;8.48;6.90;;;;;;;;;;5024224;28;20021;-57
2022/11/29 07:47:12;;;;;;;8.80;6.43;;;;;;;;;;5037404;28;20090;-57
2022/11/29 07:49:41;;;;;;;8.18;5.43;;;;;;;;;;5054685;28;20029;-57
2022/11/29 07:52:17;;;;;;;7.13;5.80;;;;;;;;;;5070986;28;20052;-57
2022/11/29 08:00:41;;;;;;;7.07;5.53;;;;;;;;;;5043063;28;20028;-57
2022/11/29 08:04:01;;;;;;;;;;;;;;;;;;;;;
2022/11/29 08:06:40;;;;;;;4.60;4.10;;;;;;;;;;5072727;28;20043;-57
2022/11/29 08:18:35;;;;;;;6.38;5.05;;;;;;;;;;5053265;28;20084;-55
2022/11/29 08:21:39;;;;;;;7.03;5.03;;;;;;;;;;5063932;28;20032;-57
2022/11/29 08:24:11;;;;;;;8.48;5.10;;;;;;;;;;4973009;28;20023;-57
2022/11/29 08:26:54;;;;;;;6.22;5.13;;;;;;;;;;4973657;28;20409;-57
2022/11/29 08:29:24;;;;;;;7.00;4.75;;;;;;;;;;4973292;28;20500;-56
2022/11/29 08:32:00;;;;;;;4.93;4.00;;;;;;;;;;4972746;28;20034;-57
2022/11/29 08:35:00;;;;;;;5.55;4.82;;;;;;;;;;4972815;28;20027;-58
2022/11/29 08:38:05;;;;;;;6.40;4.15;;;;;;;;;;4954157;28;20046;-57
2022/11/29 08:41:31;;;;;;;;;;;;;;;;;;;;;
2022/11/29 08:50:04;;;;;;;7.18;3.55;;;;;;;;;;5035687;28;20033;-56
2022/11/29 08:56:00;;;;;;;5.72;4.20;;;;;;;;;;5036017;28;20115;-58
2022/11/29 08:59:03;;;;;;;5.05;3.60;;;;;;;;;;5035938;28;20029;-56
2022/11/29 09:01:56;;;;;;;5.28;4.38;;;;;;;;;;5016476;28;20037;-57
2022/11/29 09:04:31;;;;;;;4.07;3.03;;;;;;;;;;5018940;28;20036;-55
2022/11/29 09:10:08;;;;;;;;;;;;;;;;;;;;;
2022/11/29 09:12:58;;;;;;;;;;;;;;;;;;;;;
2022/11/29 09:15:58;;;;;;;4.20;3.40;;;;;;;;;;5074499;28;20040;-57
2022/11/29 09:22:03;;;;;;;3.80;2.55;;;;;;;;;;5069212;28;20056;-57
2022/11/29 09:24:57;;;;;;;3.88;2.63;;;;;;;;;;5077313;28;20028;-57
2022/11/29 09:30:36;;;;;;;3.58;2.95;;;;;;;;;;5077333;28;20046;-57
2022/11/29 09:33:36;;;;;;;4.97;3.33;;;;;;;;;;5077169;28;20028;-58
2022/11/29 09:36:43;;;;;;;5.33;3.97;;;;;;;;;;5058119;28;20059;-56
2022/11/29 09:39:17;;;;;;;5.22;3.70;;;;;;;;;;4973870;28;20039;-55
2022/11/29 09:45:17;;;;;;;5.32;3.42;;;;;;;;;;5075556;28;20024;-57
2022/11/29 09:48:12;;;;;;;5.72;3.70;;;;;;;;;;5077403;28;20446;-57
2022/11/29 09:53:57;;;;;;;5.53;3.58;;;;;;;;;;5065408;28;20402;-57
2022/11/29 09:56:49;;;;;;;5.03;3.90;;;;;;;;;;5039141;28;20115;-58
2022/11/29 09:59:38;;;;;;;7.60;5.25;;;;;;;;;;5029079;28;20125;-56
2022/11/29 10:02:46;;;;;;;6.60;4.40;;;;;;;;;;5040432;28;20033;-58
2022/11/29 10:12:13;;;;;;;5.25;4.45;;;;;;;;;;4956607;29;20054;-57
2022/11/29 10:18:21;;;;;;;6.35;5.03;;;;;;;;;;4918051;29;20460;-58
2022/11/29 10:21:05;;;;;;;7.28;5.28;;;;;;;;;;4957069;29;20039;-56
2022/11/29 10:23:57;;;;;;;7.00;4.95;;;;;;;;;;4976155;28;20534;-57
2022/11/29 10:26:43;;;;;;;6.15;4.63;;;;;;;;;;4998602;28;20046;-56
2022/11/29 10:29:36;;;;;;;8.48;7.50;;;;;;;;;;5014934;28;20033;-56
2022/11/29 10:32:20;;;;;;;7.45;5.55;;;;;;;;;;4993715;28;20056;-57
2022/11/29 10:37:56;;;;;;;8.05;5.65;;;;;;;;;;5056885;28;20040;-57
2022/11/29 10:41:04;;;;;;;;;;;;;;;;;;;;;
2022/11/29 10:43:46;;;;;;;9.88;7.15;;;;;;;;;;5059241;28;20431;-57
2022/11/29 10:46:31;;;;;;;12.40;8.20;;;;;;;;;;5037259;28;20033;-57
2022/11/29 10:49:11;;;;;;;9.30;7.13;;;;;;;;;;5037373;28;20025;-56
2022/11/29 10:51:52;;;;;;;14.30;8.65;;;;;;;;;;5055538;28;20028;-58
2022/11/29 10:54:51;;;;;;;14.02;8.95;;;;;;;;;;5054731;28;20420;-58
2022/11/29 10:57:52;;;;;;;;;;;;;;;;;;;;;
2022/11/29 11:03:43;;;;;;;;;;;;;;;;;;;;;
2022/11/29 11:06:22;;;;;;;8.63;6.70;;;;;;;;;;4965105;28;20440;-56
2022/11/29 11:09:18;;;;;;;9.13;7.28;;;;;;;;;;5035977;28;20102;-57
2022/11/29 11:11:58;;;;;;;8.35;7.35;;;;;;;;;;5052114;28;20128;-56
2022/11/29 11:15:02;;;;;;;;;;;;;;;;;;;;;
2022/11/29 11:17:35;;;;;;;10.23;7.30;;;;;;;;;;5055098;28;20021;-57
2022/11/29 11:20:30;;;;;;;7.95;7.20;;;;;;;;;;5037494;28;20029;-56
2022/11/29 11:23:49;;;;;;;9.00;7.93;;;;;;;;;;5055262;28;20048;-57
2022/11/29 11:26:39;;;;;;;8.43;7.53;;;;;;;;;;4954777;29;20027;-57
2022/11/29 11:30:02;;;;;;;9.25;8.27;;;;;;;;;;5091836;27;20375;-58
2022/11/29 11:32:47;;;;;;;10.95;8.18;;;;;;;;;;5090738;28;20493;-57
2022/11/29 11:35:38;;;;;;;10.80;8.05;;;;;;;;;;5092027;28;20024;-58
2022/11/29 11:50:51;;;;;;;11.77;8.88;;;;;;;;;;5091412;28;20023;-56
2022/11/29 11:53:49;;;;;;;13.48;8.93;;;;;;;;;;5091948;28;20632;-57
2022/11/29 11:56:39;;;;;;;8.88;6.93;;;;;;;;;;5091589;28;20059;-58
2022/11/29 11:59:29;;;;;;;9.18;7.75;;;;;;;;;;5091698;28;20453;-55
2022/11/29 12:02:43;;;;;;;10.98;8.88;;;;;;;;;;5090650;28;20104;-57
2022/11/29 12:08:33;;;;;;;13.52;8.40;;;;;;;;;;5090899;28;20039;-58
2022/11/29 12:11:19;;;;;;;12.02;7.93;;;;;;;;;;5106764;28;20068;-57
2022/11/29 12:14:05;;;;;;;13.60;8.65;;;;;;;;;;5090710;28;20040;-58
2022/11/29 12:17:09;;;;;;;9.82;7.50;;;;;;;;;;5091739;28;20032;-58
2022/11/29 12:20:08;;;;;;;18.63;13.63;;;;;;;;;;5088539;28;20032;-57
2022/11/29 12:26:06;;;;;;;7.22;6.20;;;;;;;;;;5109284;28;20146;-58
2022/11/29 12:28:34;;;;;;;10.98;7.50;;;;;;;;;;5080240;28;20066;-58
2022/11/29 12:31:27;;;;;;;10.95;8.30;;;;;;;;;;5091089;28;20024;-58
2022/11/29 12:34:21;;;;;;;8.18;7.18;;;;;;;;;;5090620;28;20482;-57
2022/11/29 12:37:08;;;;;;;8.65;7.38;;;;;;;;;;5090927;28;20033;-58
2022/11/29 12:39:56;;;;;;;8.38;7.45;;;;;;;;;;5083405;28;20033;-58
2022/11/29 12:42:58;;;;;;;;;;;;;;;;;;;;;
2022/11/29 12:45:45;;;;;;;6.38;5.68;;;;;;;;;;5077903;28;20032;-56
2022/11/29 12:48:39;;;;;;;;;;;;;;;;;;;;;
2022/11/29 12:51:33;;;;;;;5.95;5.03;;;;;;;;;;5076641;28;20115;-57
2022/11/29 12:54:18;;;;;;;6.82;6.13;;;;;;;;;;5077642;28;20031;-58
2022/11/29 12:57:03;;;;;;;8.88;6.03;;;;;;;;;;5095362;28;20050;-56
2022/11/29 13:03:02;;;;;;;6.50;5.90;;;;;;;;;;5094675;28;20482;-57
2022/11/29 13:09:03;;;;;;;8.18;6.13;;;;;;;;;;5090622;28;20032;-58
2022/11/29 13:11:49;;;;;;;7.90;6.18;;;;;;;;;;5073783;28;20052;-58
2022/11/29 13:14:51;;;;;;;8.70;7.43;;;;;;;;;;5074345;28;20490;-57
2022/11/29 13:17:42;;;;;;;;;;;;;;;;;;;;;
2022/11/29 13:20:11;;;;;;;;;;;;;;;;;;5074084;28;20027;-58
2022/11/29 13:23:11;;;;;;;;;;;;;;;;;;;;;
2022/11/29 13:25:56;;;;;;;9.05;7.68;;;;;;;;;;5058861;28;20024;-57
2022/11/29 13:31:36;;;;;;;7.97;7.18;;;;;;;;;;5073587;28;20039;-57
2022/11/29 13:34:27;;;;;;;9.10;8.18;;;;;;;;;;5053537;28;20095;-56
2022/11/29 13:37:20;;;;;;;9.35;8.27;;;;;;;;;;5053610;28;20476;-58
2022/11/29 13:43:18;;;;;;;8.25;7.35;;;;;;;;;;5053274;28;20032;-58
2022/11/29 13:49:48;;;;;;;8.13;7.27;;;;;;;;;;4994093;28;20065;-57
2022/11/29 13:55:43;;;;;;;11.20;7.20;;;;;;;;;;4993475;28;20030;-58
2022/11/29 13:58:50;;;;;;;7.75;6.93;;;;;;;;;;4975017;28;20184;-57
2022/11/29 14:01:27;;;;;;;8.55;7.65;;;;;;;;;;4941419;29;20473;-58
2022/11/29 14:04:17;;;;;;;8.05;7.20;;;;;;;;;;4966565;28;20043;-58
2022/11/29 14:07:04;;;;;;;8.90;7.75;;;;;;;;;;5006203;28;20498;-57
2022/11/29 14:09:55;;;;;;;8.20;7.38;;;;;;;;;;5017001;28;20541;-56
2022/11/29 14:12:41;;;;;;;8.20;7.35;;;;;;;;;;5017000;28;20036;-58
2022/11/29 14:15:25;;;;;;;;;;;;;;;;;;;;;
2022/11/29 14:18:18;;;;;;;9.20;6.97;;;;;;;;;;5093284;28;20428;-57
2022/11/29 14:24:21;;;;;;;7.53;6.07;;;;;;;;;;5052741;28;20188;-57
2022/11/29 14:33:38;;;;;;;9.70;6.18;;;;;;;;;;5082380;28;20145;-57
2022/11/29 14:36:44;;;;;;;6.28;5.53;;;;;;;;;;5093097;28;20134;-58
2022/11/29 14:39:31;;;;;;;8.35;6.20;;;;;;;;;;5093272;28;20627;-58
2022/11/29 14:42:31;;;;;;;8.73;6.70;;;;;;;;;;5092959;28;20032;-58
2022/11/29 14:45:23;;;;;;;7.13;5.53;;;;;;;;;;5058184;28;20084;-58
2022/11/29 14:48:13;;;;;;;7.25;5.57;;;;;;;;;;5074760;28;20064;-56
2022/11/29 14:50:58;;;;;;;;;;;;;;;;;;;;;
2022/11/29 14:53:36;;;;;;;5.85;5.32;;;;;;;;;;5073560;28;20123;-58
2022/11/29 14:56:24;;;;;;;5.22;4.68;;;;;;;;;;5074983;28;20028;-57
2022/11/29 14:59:24;;;;;;;6.38;5.20;;;;;;;;;;5073714;28;20466;-58
2022/11/29 15:02:13;;;;;;;4.85;4.35;;;;;;;;;;5077270;28;20486;-57
2022/11/29 15:04:53;;;;;;;5.15;4.38;;;;;;;;;;5064312;28;20094;-58
2022/11/29 15:07:28;;;;;;;5.32;3.80;;;;;;;;;;5073469;28;20033;-56
2022/11/29 15:10:26;;;;;;;;;;;;;;;;;;;;;
2022/11/29 15:13:02;;;;;;;7.18;5.18;;;;;;;;;;5072250;28;20088;-57
2022/11/29 15:15:53;;;;;;;4.20;3.80;;;;;;;;;;5074232;28;20550;-58
2022/11/29 15:18:58;;;;;;;;;;;;;;;;;;;;;
2022/11/29 15:22:08;;;;;;;;;;;;;;;;;;;;;
2022/11/29 15:24:59;;;;;;;6.35;5.13;;;;;;;;;;5075294;28;20080;-58
2022/11/29 15:27:28;;;;;;;5.85;5.00;;;;;;;;;;5075784;28;20497;-58
2022/11/29 15:30:11;;;;;;;6.85;5.32;;;;;;;;;;5081936;28;20375;-56
2022/11/29 15:33:17;;;;;;;6.32;4.95;;;;;;;;;;5074251;28;20016;-56
2022/11/29 15:39:27;;;;;;;5.93;5.32;;;;;;;;;;5073070;28;20032;-58
2022/11/29 15:42:07;;;;;;;7.32;6.07;;;;;;;;;;5074154;28;20556;-56
2022/11/29 15:45:13;;;;;;;9.55;6.13;;;;;;;;;;5057298;28;20035;-58
2022/11/29 15:48:14;;;;;;;7.68;6.53;;;;;;;;;;5074584;28;20029;-58
2022/11/29 15:51:02;;;;;;;7.70;6.95;;;;;;;;;;5072434;28;20039;-56
2022/11/29 15:56:43;;;;;;;6.53;5.82;;;;;;;;;;5074604;28;20454;-58
2022/11/29 15:59:41;;;;;;;6.80;6.15;;;;;;;;;;5074043;28;20152;-58
2022/11/29 16:02:26;;;;;;;7.15;6.47;;;;;;;;;;5072701;28;20045;-58
2022/11/29 16:05:20;;;;;;;6.78;5.97;;;;;;;;;;5074085;28;20020;-58
2022/11/29 16:08:15;;;;;;;8.10;6.60;;;;;;;;;;5077738;28;20483;-57
2022/11/29 16:11:06;;;;;;;9.00;7.25;;;;;;;;;;5072025;28;20474;-57
2022/11/29 16:13:38;;;;;;;9.38;7.40;;;;;;;;;;5091421;28;20036;-57
2022/11/29 16:16:26;;;;;;;7.75;6.95;;;;;;;;;;5095935;28;20032;-57
2022/11/29 16:25:27;;;;;;;8.55;6.95;;;;;;;;;;5091505;28;20055;-58
2022/11/29 16:28:09;;;;;;;;;;;;;;;;;;;;;
2022/11/29 16:30:42;;;;;;;7.75;6.35;;;;;;;;;;5073936;28;20052;-58
2022/11/29 16:36:48;;;;;;;6.40;5.63;;;;;;;;;;5074849;28;20047;-58
2022/11/29 16:39:30;;;;;;;8.30;7.07;;;;;;;;;;5076103;28;20048;-58
2022/11/29 16:45:41;;;;;;;12.13;9.10;;;;;;;;;;5059079;28;20029;-58
2022/11/29 16:48:31;;;;;;;10.50;8.27;;;;;;;;;;5057224;28;20029;-58
2022/11/29 16:51:22;;;;;;;9.27;7.68;;;;;;;;;;5057195;28;20029;-58
2022/11/29 16:53:52;;;;;;;12.52;7.82;;;;;;;;;;5057842;28;20369;-58
2022/11/29 17:02:20;;;;;;;10.80;8.30;;;;;;;;;;5094703;28;20028;-57
2022/11/29 17:05:13;;;;;;;9.93;7.90;;;;;;;;;;5061876;28;20041;-57
2022/11/29 17:08:19;;;;;;;9.13;6.57;;;;;;;;;;5057236;28;20072;-58
2022/11/29 17:16:34;;;;;;;;;;;;;;;;;;;;;
2022/11/29 17:22:14;;;;;;;8.88;7.97;;;;;;;;;;5071202;28;20021;-58
2022/11/29 17:25:07;;;;;;;11.40;9.32;;;;;;;;;;5056920;28;20020;-57
2022/11/29 17:28:02;;;;;;;10.50;9.05;;;;;;;;;;5056604;28;20024;-58
2022/11/29 17:30:45;;;;;;;10.82;8.98;;;;;;;;;;5056204;28;20398;-58
2022/11/29 17:33:25;;;;;;;10.65;9.10;;;;;;;;;;5056860;28;20036;-57
2022/11/29 17:36:00;;;;;;;9.70;8.13;;;;;;;;;;5056893;28;20464;-58
2022/11/29 17:38:48;;;;;;;10.27;9.10;;;;;;;;;;5056102;28;20471;-56
2022/11/29 17:41:33;;;;;;;11.45;10.23;;;;;;;;;;5057135;28;20544;-58
2022/11/29 17:44:24;;;;;;;12.93;10.38;;;;;;;;;;5059320;28;20025;-56
2022/11/29 17:46:53;;;;;;;10.45;8.52;;;;;;;;;;5055824;28;20039;-58
2022/11/29 17:49:45;;;;;;;14.63;10.07;;;;;;;;;;5053741;28;20064;-55
2022/11/29 17:52:38;;;;;;;14.05;9.02;;;;;;;;;;5056020;28;20039;-57
2022/11/29 17:55:10;;;;;;;12.23;9.52;;;;;;;;;;5055199;28;20512;-58
2022/11/29 17:57:45;;;;;;;11.85;9.63;;;;;;;;;;5055304;28;20033;-57
2022/11/29 18:10:23;;;;;;;13.80;11.45;;;;;;;;;;5073024;28;20096;-58
2022/11/29 18:13:37;;;;;;;10.38;9.25;;;;;;;;;;5053215;28;20552;-58
2022/11/29 18:16:31;;;;;;;15.23;12.02;;;;;;;;;;5037004;28;20036;-55
2022/11/29 18:19:34;;;;;;;13.88;10.57;;;;;;;;;;5053472;28;20392;-56
2022/11/29 18:22:17;;;;;;;15.57;10.43;;;;;;;;;;4995900;28;20133;-56
2022/11/29 18:25:06;;;;;;;14.57;11.93;;;;;;;;;;5024021;28;20048;-58
2022/11/29 18:36:57;;;;;;;15.77;11.07;;;;;;;;;;5072260;28;20043;-58
2022/11/29 18:39:47;;;;;;;16.00;12.50;;;;;;;;;;5074624;28;20152;-58
2022/11/29 18:45:23;;;;;;;19.40;10.77;;;;;;;;;;5074845;28;20048;-57
2022/11/29 18:51:18;;;;;;;17.25;12.93;;;;;;;;;;5074929;28;20516;-55
2022/11/29 18:56:52;;;;;;;16.40;11.95;;;;;;;;;;5073600;28;20053;-57
2022/11/29 18:59:27;;;;;;;18.50;13.07;;;;;;;;;;5075551;28;20050;-56
2022/11/29 19:02:19;;;;;;;17.38;12.20;;;;;;;;;;5074401;28;20359;-55
2022/11/29 19:04:47;;;;;;;16.15;11.98;;;;;;;;;;5074221;28;20032;-57
2022/11/29 19:07:49;;;;;;;18.10;14.07;;;;;;;;;;5072389;28;20116;-58
2022/11/29 19:10:48;;;;;;;;;;;;;;;;;;;;;
2022/11/29 19:13:24;;;;;;;15.20;12.70;;;;;;;;;;5071606;28;20028;-56
2022/11/29 19:16:15;;;;;;;17.50;12.77;;;;;;;;;;5072464;28;20036;-58
2022/11/29 19:19:34;;;;;;;;;;;;;;;;;;;;;
2022/11/29 19:21:55;;;;;;;19.23;12.40;;;;;;;;;;5061403;28;20040;-58
2022/11/29 19:24:48;;;;;;;19.02;14.40;;;;;;;;;;5071520;28;20028;-58
2022/11/29 19:27:24;;;;;;;16.13;12.23;;;;;;;;;;5031486;28;20030;-58
2022/11/29 19:30:39;;;;;;;19.70;12.85;;;;;;;;;;5002789;28;20628;-58
2022/11/29 19:36:11;;;;;;;17.00;12.38;;;;;;;;;;4935561;29;20046;-57
2022/11/29 19:39:08;;;;;;;16.85;12.65;;;;;;;;;;5025326;28;20092;-56
2022/11/29 19:41:39;;;;;;;19.80;13.88;;;;;;;;;;5050368;28;20117;-57
2022/11/29 19:44:20;;;;;;;20.02;13.68;;;;;;;;;;5055874;28;20032;-57
2022/11/29 19:47:19;;;;;;;22.40;15.25;;;;;;;;;;5072371;28;20067;-57
2022/11/29 19:53:02;;;;;;;17.42;12.07;;;;;;;;;;5075958;28;20064;-57
2022/11/29 19:55:46;;;;;;;;;;;;;;;;;;;;;
2022/11/29 20:01:21;;;;;;;16.67;13.27;;;;;;;;;;5075977;28;20043;-56
2022/11/29 20:04:10;;;;;;;18.20;13.65;;;;;;;;;;5073610;28;20054;-56
2022/11/29 20:06:50;;;;;;;18.25;14.35;;;;;;;;;;5040740;28;20718;-58
2022/11/29 20:09:50;;;;;;;;;;;;;;;;;;;;;
2022/11/29 20:15:21;;;;;;;16.17;12.43;;;;;;;;;;5054974;28;20070;-55
2022/11/29 20:18:27;;;;;;;17.17;13.82;;;;;;;;;;5038086;28;20514;-57
2022/11/29 20:24:35;;;;;;;16.27;12.13;;;;;;;;;;4995436;28;20484;-57
2022/11/29 20:30:26;;;;;;;18.15;12.20;;;;;;;;;;4992697;28;20245;-57
2022/11/29 20:33:04;;;;;;;20.80;12.93;;;;;;;;;;4995958;28;20124;-57
2022/11/29 20:35:41;;;;;;;17.92;12.63;;;;;;;;;;4995884;28;20026;-57
2022/11/29 20:41:51;;;;;;;23.45;14.38;;;;;;;;;;5083164;28;20028;-58
2022/11/29 20:44:32;;;;;;;21.55;13.63;;;;;;;;;;5098312;28;20436;-57
2022/11/29 20:47:07;;;;;;;;;;;;;;;;;;5101792;28;20026;-56
2022/11/29 20:49:35;;;;;;;19.20;11.98;;;;;;;;;;5099780;28;19911;-57
2022/11/29 20:52:40;;;;;;;23.23;13.23;;;;;;;;;;5081896;28;20034;-56
2022/11/29 20:55:41;;;;;;;;;;;;;;;;;;;;;
2022/11/29 21:01:59;;;;;;;20.70;12.40;;;;;;;;;;5075334;28;20081;-56
2022/11/29 21:10:21;;;;;;;;;;;;;;;;;;;;;
2022/11/29 21:13:01;;;;;;;17.45;12.43;;;;;;;;;;5054585;28;20143;-58
2022/11/29 21:15:55;;;;;;;17.85;13.57;;;;;;;;;;5054940;28;20032;-57
2022/11/29 21:18:37;;;;;;;20.80;13.60;;;;;;;;;;5037312;28;20029;-58
2022/11/29 21:21:34;;;;;;;;;;;;;;;;;;;;;
2022/11/29 21:27:07;;;;;;;15.27;13.40;;;;;;;;;;5050372;28;20111;-58
2022/11/29 21:29:36;;;;;;;24.65;14.95;;;;;;;;;;5036231;28;20584;-57
2022/11/29 21:32:29;;;;;;;23.25;15.45;;;;;;;;;;5017322;28;20479;-58
2022/11/29 21:35:22;;;;;;;17.58;14.07;;;;;;;;;;5017343;28;20025;-58
2022/11/29 21:37:56;;;;;;;20.98;13.80;;;;;;;;;;5034318;28;20037;-56
2022/11/29 21:47:12;;;;;;;20.02;13.63;;;;;;;;;;5020125;28;20037;-56
2022/11/29 21:50:01;;;;;;;19.65;13.35;;;;;;;;;;5070767;28;20098;-57
2022/11/29 21:52:36;;;;;;;29.33;17.42;;;;;;;;;;5083347;28;20119;-58
2022/11/29 21:55:21;;;;;;;16.73;12.50;;;;;;;;;;5096518;28;20497;-57
2022/11/29 21:58:05;;;;;;;25.00;15.82;;;;;;;;;;5096730;28;20024;-57
2022/11/29 22:04:10;;;;;;;22.38;15.70;;;;;;;;;;5075547;28;20036;-57
2022/11/29 22:06:59;;;;;;;21.55;13.55;;;;;;;;;;5110413;28;20024;-56
2022/11/29 22:09:37;;;;;;;21.38;16.88;;;;;;;;;;5110360;28;20057;-57
2022/11/29 22:12:34;;;;;;;20.65;15.50;;;;;;;;;;5109443;28;20032;-55
2022/11/29 22:18:21;;;;;;;24.17;17.88;;;;;;;;;;5110210;28;20103;-57
2022/11/29 22:21:13;;;;;;;24.65;16.98;;;;;;;;;;5110165;28;20024;-57
2022/11/29 22:27:00;;;;;;;20.58;15.95;;;;;;;;;;5109941;28;20098;-56
2022/11/29 22:29:51;;;;;;;20.50;14.60;;;;;;;;;;5109562;28;20016;-58
2022/11/29 22:32:18;;;;;;;;;;;;;;;;;;5130524;28;20486;-58
2022/11/29 22:35:25;;;;;;;19.80;15.60;;;;;;;;;;5128603;28;19935;-56
2022/11/29 22:38:03;;;;;;;26.85;19.33;;;;;;;;;;5101124;28;20043;-58
2022/11/29 22:40:59;;;;;;;19.25;15.70;;;;;;;;;;5111831;28;20104;-57
2022/11/29 22:43:29;;;;;;;29.17;18.27;;;;;;;;;;5126220;28;20047;-56
2022/11/29 22:46:02;;;;;;;22.02;15.27;;;;;;;;;;5130076;28;20028;-57
2022/11/29 22:48:41;;;;;;;23.05;19.65;;;;;;;;;;5130037;28;20039;-55
2022/11/29 22:57:53;;;;;;;26.73;17.40;;;;;;;;;;4988499;28;20542;-58
2022/11/29 23:00:41;;;;;;;;;;;;;;;;;;;;;